createdAt,value
2018-11-04T00:00:01.468Z,47.90
2018-11-04T00:02:29.768Z,48.00
2018-11-04T00:04:58.197Z,48.20
2018-11-04T00:07:26.612Z,48.80
2018-11-04T00:09:55.023Z,48.10
2018-11-04T00:12:23.445Z,47.70
2018-11-04T00:14:52.516Z,47.80
2018-11-04T00:17:20.943Z,48.10
2018-11-04T00:19:49.375Z,48.10
2018-11-04T00:22:17.802Z,48.20
2018-11-04T00:24:46.199Z,48.30
2018-11-04T00:27:14.606Z,48.30
2018-11-04T00:29:43.021Z,48.40
2018-11-04T00:32:11.453Z,48.40
2018-11-04T00:34:39.911Z,48.40
2018-11-04T00:37:09.035Z,48.50
2018-11-04T00:39:37.452Z,48.70
2018-11-04T00:42:05.958Z,48.60
2018-11-04T00:44:34.442Z,48.60
2018-11-04T00:47:02.908Z,48.50
2018-11-04T00:49:31.341Z,48.00
2018-11-04T00:51:59.743Z,48.30
2018-11-04T00:54:28.151Z,48.30
2018-11-04T00:56:56.535Z,48.40
2018-11-04T00:59:24.966Z,48.50
2018-11-04T01:01:53.379Z,48.40
2018-11-04T01:04:22.881Z,48.50
2018-11-04T01:06:51.277Z,48.50
2018-11-04T01:09:19.848Z,48.50
2018-11-04T01:11:49.371Z,48.60
2018-11-04T01:14:17.762Z,48.80
2018-11-04T01:16:46.176Z,48.90
2018-11-04T01:19:14.567Z,48.50
2018-11-04T01:21:42.967Z,48.20
2018-11-04T01:24:11.400Z,48.00
2018-11-04T01:26:39.818Z,47.80
2018-11-04T01:29:08.774Z,48.10
2018-11-04T01:31:37.275Z,48.90
2018-11-04T01:34:06.114Z,48.30
2018-11-04T01:36:34.715Z,48.30
2018-11-04T01:39:03.312Z,48.30
2018-11-04T01:41:31.729Z,48.50
2018-11-04T01:44:00.128Z,48.40
2018-11-04T01:46:28.550Z,49.10
2018-11-04T01:48:56.947Z,48.70
2018-11-04T01:51:25.410Z,48.80
2018-11-04T01:53:53.877Z,48.80
2018-11-04T01:56:22.416Z,48.90
2018-11-04T01:58:51.819Z,49.10
2018-11-04T02:01:20.352Z,49.30
2018-11-04T02:03:48.740Z,50.00
2018-11-04T02:06:17.183Z,49.40
2018-11-04T02:08:45.599Z,49.50
2018-11-04T02:11:14.112Z,49.50
2018-11-04T02:13:42.503Z,49.60
2018-11-04T02:16:10.910Z,49.60
2018-11-04T02:18:40.001Z,49.60
2018-11-04T02:21:08.443Z,49.70
2018-11-04T02:23:36.831Z,49.80
2018-11-04T02:26:05.467Z,49.70
2018-11-04T02:28:34.906Z,49.90
2018-11-04T02:31:03.309Z,49.80
2018-11-04T02:33:31.723Z,49.40
2018-11-04T02:36:00.142Z,48.90
2018-11-04T02:38:28.580Z,48.80
2018-11-04T02:40:57.583Z,48.50
2018-11-04T02:43:26.917Z,48.70
2018-11-04T02:45:55.316Z,49.00
2018-11-04T02:48:23.728Z,49.10
2018-11-04T02:50:52.123Z,49.60
2018-11-04T02:53:21.210Z,49.30
2018-11-04T02:55:50.224Z,49.40
2018-11-04T02:58:19.353Z,49.40
2018-11-04T03:00:48.540Z,49.40
2018-11-04T03:03:17.543Z,49.40
2018-11-04T03:05:46.725Z,49.40
2018-11-04T03:08:15.743Z,49.40
2018-11-04T03:10:44.132Z,49.40
2018-11-04T03:13:12.655Z,49.00
2018-11-04T03:15:41.791Z,49.40
2018-11-04T03:18:10.470Z,49.40
2018-11-04T03:20:38.952Z,49.50
2018-11-04T03:23:08.424Z,49.50
2018-11-04T03:25:37.639Z,49.50
2018-11-04T03:28:07.500Z,49.50
2018-11-04T03:30:36.736Z,49.50
2018-11-04T03:33:06.183Z,49.60
2018-11-04T03:35:34.604Z,49.50
2018-11-04T03:38:03.743Z,49.60
2018-11-04T03:40:32.873Z,49.60
2018-11-04T03:43:01.498Z,49.70
2018-11-04T03:45:29.888Z,49.50
2018-11-04T03:47:58.284Z,49.70
2018-11-04T03:50:26.642Z,49.80
2018-11-04T03:53:09.175Z,49.70
2018-11-04T03:55:39.787Z,49.60
2018-11-04T03:58:08.399Z,49.50
2018-11-04T04:00:36.884Z,49.50
2018-11-04T04:03:05.511Z,49.50
2018-11-04T04:05:34.039Z,49.50
2018-11-04T04:08:02.471Z,49.50
2018-11-04T04:10:31.451Z,49.50
2018-11-04T04:12:59.894Z,49.50
2018-11-04T04:15:28.323Z,50.10
2018-11-04T04:17:56.739Z,49.40
2018-11-04T04:20:25.123Z,49.40
2018-11-04T04:22:53.533Z,49.40
2018-11-04T04:25:21.942Z,49.40
2018-11-04T04:27:50.559Z,49.40
2018-11-04T04:30:18.947Z,49.40
2018-11-04T04:32:48.230Z,49.30
2018-11-04T04:35:16.631Z,49.30
2018-11-04T04:37:45.017Z,49.40
2018-11-04T04:40:13.456Z,49.40
2018-11-04T04:42:41.842Z,49.40
2018-11-04T04:45:10.239Z,49.30
2018-11-04T04:47:38.923Z,49.30
2018-11-04T04:50:07.516Z,49.40
2018-11-04T04:52:35.989Z,49.30
2018-11-04T04:55:04.431Z,49.30
2018-11-04T04:57:32.821Z,49.20
2018-11-04T05:00:01.213Z,49.30
2018-11-04T05:02:29.745Z,49.20
2018-11-04T05:04:58.788Z,49.20
2018-11-04T05:07:27.189Z,49.30
2018-11-04T05:09:55.579Z,49.20
2018-11-04T05:12:24.021Z,49.20
2018-11-04T05:14:52.434Z,49.20
2018-11-04T05:17:20.858Z,49.20
2018-11-04T05:19:49.247Z,49.20
2018-11-04T05:22:17.607Z,49.30
2018-11-04T05:24:46.016Z,49.20
2018-11-04T05:27:14.399Z,49.20
2018-11-04T05:29:42.816Z,49.20
2018-11-04T05:32:11.286Z,49.20
2018-11-04T05:34:39.725Z,49.20
2018-11-04T05:37:08.116Z,49.20
2018-11-04T05:39:37.348Z,49.20
2018-11-04T05:42:05.863Z,49.20
2018-11-04T05:44:34.858Z,49.20
2018-11-04T05:47:03.277Z,49.20
2018-11-04T05:49:31.662Z,49.10
2018-11-04T05:52:00.471Z,49.00
2018-11-04T05:54:28.859Z,48.90
2018-11-04T05:56:57.257Z,48.80
2018-11-04T05:59:25.610Z,48.40
2018-11-04T06:01:54.004Z,48.50
2018-11-04T06:04:22.411Z,48.50
2018-11-04T06:06:51.526Z,48.40
2018-11-04T06:09:19.919Z,47.50
2018-11-04T06:11:48.320Z,46.90
2018-11-04T06:14:16.732Z,47.90
2018-11-04T06:16:45.123Z,47.90
2018-11-04T06:19:13.538Z,48.20
2018-11-04T06:21:41.913Z,47.70
2018-11-04T06:24:10.295Z,47.70
2018-11-04T06:26:38.747Z,47.80
2018-11-04T06:29:07.134Z,47.80
2018-11-04T06:31:35.538Z,47.90
2018-11-04T06:34:04.456Z,47.90
2018-11-04T06:36:32.852Z,47.80
2018-11-04T06:39:02.455Z,47.80
2018-11-04T06:41:30.877Z,47.80
2018-11-04T06:43:59.272Z,47.30
2018-11-04T06:46:27.661Z,47.40
2018-11-04T06:48:56.039Z,47.50
2018-11-04T06:51:24.451Z,47.50
2018-11-04T06:53:52.874Z,47.60
2018-11-04T06:56:21.268Z,47.60
2018-11-04T06:58:49.662Z,47.60
2018-11-04T07:01:18.044Z,47.70
2018-11-04T07:03:58.038Z,47.60
2018-11-04T07:06:26.437Z,47.60
2018-11-04T07:08:54.890Z,47.60
2018-11-04T07:11:23.291Z,47.70
2018-11-04T07:13:51.712Z,47.60
2018-11-04T07:16:20.130Z,47.60
2018-11-04T07:18:48.572Z,47.60
2018-11-04T07:21:16.968Z,48.30
2018-11-04T07:23:45.376Z,47.60
2018-11-04T07:26:13.778Z,47.50
2018-11-04T07:28:42.148Z,47.60
2018-11-04T07:31:10.668Z,47.60
2018-11-04T07:33:39.564Z,47.60
2018-11-04T07:36:08.125Z,47.60
2018-11-04T07:38:36.508Z,47.60
2018-11-04T07:41:05.208Z,47.60
2018-11-04T07:43:33.671Z,47.70
2018-11-04T07:46:02.140Z,47.50
2018-11-04T07:48:30.537Z,47.60
2018-11-04T07:50:59.400Z,47.50
2018-11-04T07:53:27.988Z,47.60
2018-11-04T07:55:56.472Z,47.90
2018-11-04T07:58:24.897Z,47.70
2018-11-04T08:00:53.655Z,47.40
2018-11-04T08:03:21.991Z,47.30
2018-11-04T08:05:50.449Z,47.00
2018-11-04T08:08:18.897Z,46.90
2018-11-04T08:10:47.383Z,46.70
2018-11-04T08:13:15.836Z,46.60
2018-11-04T08:15:44.211Z,46.80
2018-11-04T08:18:12.592Z,47.00
2018-11-04T08:20:41.000Z,47.10
2018-11-04T08:23:09.476Z,47.40
2018-11-04T08:25:37.907Z,47.50
2018-11-04T08:28:06.837Z,47.40
2018-11-04T08:30:35.262Z,47.50
2018-11-04T08:33:03.652Z,47.60
2018-11-04T08:35:32.646Z,47.70
2018-11-04T08:38:01.724Z,47.90
2018-11-04T08:40:30.429Z,47.80
2018-11-04T08:42:58.693Z,47.80
2018-11-04T08:45:27.102Z,47.80
2018-11-04T08:47:55.501Z,47.80
2018-11-04T08:50:23.991Z,48.20
2018-11-04T08:52:52.700Z,47.90
2018-11-04T08:55:21.149Z,47.90
2018-11-04T08:57:50.030Z,48.20
2018-11-04T09:00:18.457Z,48.30
2018-11-04T09:02:46.970Z,48.20
2018-11-04T09:05:15.392Z,48.20
2018-11-04T09:07:43.817Z,48.20
2018-11-04T09:10:14.161Z,48.20
2018-11-04T09:12:43.053Z,48.20
2018-11-04T09:15:11.942Z,48.30
2018-11-04T09:17:40.380Z,48.40
2018-11-04T09:20:12.084Z,48.20
2018-11-04T09:22:41.293Z,47.70
2018-11-04T09:25:10.660Z,47.50
2018-11-04T09:27:39.223Z,47.30
2018-11-04T09:30:10.184Z,47.10
2018-11-04T09:32:38.988Z,46.90
2018-11-04T09:35:08.508Z,46.80
2018-11-04T09:37:36.936Z,46.80
2018-11-04T09:40:07.333Z,46.90
2018-11-04T09:42:35.751Z,47.10
2018-11-04T09:45:04.171Z,47.10
2018-11-04T09:47:32.567Z,47.10
2018-11-04T09:50:01.119Z,46.80
2018-11-04T09:52:30.370Z,46.60
2018-11-04T09:54:58.806Z,46.50
2018-11-04T09:57:27.288Z,46.40
2018-11-04T09:59:55.723Z,46.40
2018-11-04T10:02:24.140Z,46.40
2018-11-04T10:04:52.558Z,46.40
2018-11-04T10:07:20.968Z,46.10
2018-11-04T10:09:49.651Z,46.10
2018-11-04T10:12:18.147Z,46.20
2018-11-04T10:14:46.560Z,46.20
2018-11-04T10:17:14.971Z,46.30
2018-11-04T10:19:43.534Z,45.70
2018-11-04T10:22:12.191Z,46.30
2018-11-04T10:24:40.671Z,46.20
2018-11-04T10:27:09.213Z,46.40
2018-11-04T10:29:37.659Z,46.60
2018-11-04T10:32:06.052Z,46.90
2018-11-04T10:34:34.458Z,47.10
2018-11-04T10:37:02.968Z,47.10
2018-11-04T10:39:31.353Z,47.10
2018-11-04T10:41:59.761Z,47.10
2018-11-04T10:44:28.331Z,47.10
2018-11-04T10:46:56.749Z,46.90
2018-11-04T10:49:25.206Z,46.90
2018-11-04T10:51:53.613Z,47.00
2018-11-04T10:54:22.065Z,47.00
2018-11-04T10:56:50.603Z,47.10
2018-11-04T10:59:19.040Z,47.20
2018-11-04T11:01:47.573Z,47.40
2018-11-04T11:04:15.954Z,47.50
2018-11-04T11:06:44.376Z,47.70
2018-11-04T11:09:12.787Z,47.80
2018-11-04T11:11:41.712Z,47.90
2018-11-04T11:14:10.131Z,48.00
2018-11-04T11:16:38.559Z,48.00
2018-11-04T11:19:07.010Z,48.00
2018-11-04T11:21:35.537Z,47.80
2018-11-04T11:24:04.015Z,47.80
2018-11-04T11:26:32.439Z,47.70
2018-11-04T11:29:00.892Z,47.70
2018-11-04T11:31:29.479Z,47.80
2018-11-04T11:33:57.884Z,47.80
2018-11-04T11:36:26.723Z,47.70
2018-11-04T11:38:55.161Z,47.50
2018-11-04T11:41:23.646Z,47.10
2018-11-04T11:43:52.078Z,47.00
2018-11-04T11:46:20.512Z,46.70
2018-11-04T11:48:49.077Z,46.60
2018-11-04T11:51:17.508Z,46.60
2018-11-04T11:53:45.995Z,46.80
2018-11-04T11:56:14.450Z,47.10
2018-11-04T11:58:42.899Z,47.40
2018-11-04T12:01:11.328Z,47.60
2018-11-04T12:03:39.811Z,47.90
2018-11-04T12:06:08.210Z,48.00
2018-11-04T12:08:36.659Z,48.00
2018-11-04T12:11:05.504Z,48.00
2018-11-04T12:13:34.012Z,48.10
2018-11-04T12:16:02.443Z,48.00
2018-11-04T12:18:30.918Z,48.00
2018-11-04T12:20:59.937Z,48.10
2018-11-04T12:23:28.400Z,48.00
2018-11-04T12:25:56.753Z,48.20
2018-11-04T12:28:25.164Z,48.30
2018-11-04T12:30:53.615Z,48.30
2018-11-04T12:33:22.133Z,48.30
2018-11-04T12:35:50.997Z,48.30
2018-11-04T12:38:20.392Z,48.40
2018-11-04T12:40:48.803Z,48.30
2018-11-04T12:43:17.244Z,48.30
2018-11-04T12:45:45.726Z,49.00
2018-11-04T12:48:14.106Z,48.20
2018-11-04T12:50:42.764Z,48.20
2018-11-04T12:53:11.278Z,48.20
2018-11-04T12:55:39.688Z,48.20
2018-11-04T12:58:08.075Z,48.20
2018-11-04T13:00:36.496Z,48.90
2018-11-04T13:03:04.956Z,48.20
2018-11-04T13:05:33.707Z,48.20
2018-11-04T13:08:02.151Z,48.80
2018-11-04T13:10:30.629Z,48.60
2018-11-04T13:12:59.171Z,48.60
2018-11-04T13:15:27.691Z,48.70
2018-11-04T13:17:56.132Z,48.80
2018-11-04T13:20:24.552Z,48.80
2018-11-04T13:22:52.987Z,49.00
2018-11-04T13:25:21.463Z,48.90
2018-11-04T13:27:49.911Z,49.20
2018-11-04T13:30:18.320Z,48.80
2018-11-04T13:32:46.744Z,48.70
2018-11-04T13:35:15.172Z,48.70
2018-11-04T13:37:43.696Z,48.70
2018-11-04T13:40:12.547Z,48.80
2018-11-04T13:42:41.636Z,48.70
2018-11-04T13:45:10.727Z,48.80
2018-11-04T13:47:39.227Z,48.80
2018-11-04T13:50:10.777Z,49.10
2018-11-04T13:52:39.789Z,49.20
2018-11-04T13:55:08.272Z,49.10
2018-11-04T13:57:37.176Z,49.30
2018-11-04T14:00:07.705Z,49.40
2018-11-04T14:02:36.738Z,49.50
2018-11-04T14:05:07.597Z,49.70
2018-11-04T14:07:36.020Z,49.20
2018-11-04T14:10:05.278Z,49.10
2018-11-04T14:12:34.707Z,49.10
2018-11-04T14:15:03.135Z,49.10
2018-11-04T14:17:32.164Z,49.00
2018-11-04T14:20:01.548Z,49.00
2018-11-04T14:22:30.674Z,49.10
2018-11-04T14:25:00.259Z,49.00
2018-11-04T14:27:29.043Z,48.90
2018-11-04T14:29:57.491Z,48.90
2018-11-04T14:32:27.345Z,48.60
2018-11-04T14:34:55.788Z,48.50
2018-11-04T14:37:24.273Z,48.60
2018-11-04T14:39:53.019Z,48.80
2018-11-04T14:42:21.806Z,48.80
2018-11-04T14:44:50.221Z,48.80
2018-11-04T14:47:18.797Z,48.80
2018-11-04T14:49:47.599Z,49.00
2018-11-04T14:52:16.004Z,49.30
2018-11-04T14:54:45.192Z,49.30
2018-11-04T14:57:14.030Z,49.50
2018-11-04T14:59:42.958Z,49.60
2018-11-04T15:02:11.455Z,49.70
2018-11-04T15:04:39.937Z,49.70
2018-11-04T15:07:09.421Z,49.80
2018-11-04T15:09:38.476Z,50.00
2018-11-04T15:12:07.144Z,50.00
2018-11-04T15:14:36.179Z,50.00
2018-11-04T15:17:04.586Z,49.90
2018-11-04T15:19:32.996Z,49.90
2018-11-04T15:22:01.999Z,50.00
2018-11-04T15:24:30.969Z,50.30
2018-11-04T15:26:59.702Z,50.40
2018-11-04T15:29:28.724Z,50.40
2018-11-04T15:31:57.179Z,50.60
2018-11-04T15:34:25.779Z,50.70
2018-11-04T15:36:54.566Z,50.10
2018-11-04T15:39:23.509Z,50.40
2018-11-04T15:41:51.949Z,50.30
2018-11-04T15:44:20.443Z,50.50
2018-11-04T15:46:48.884Z,50.30
2018-11-04T15:49:17.337Z,50.10
2018-11-04T15:51:45.819Z,50.40
2018-11-04T15:54:14.363Z,50.40
2018-11-04T15:56:42.881Z,48.70
2018-11-04T15:59:11.304Z,48.30
2018-11-04T16:01:39.775Z,48.70
2018-11-04T16:04:08.415Z,48.90
2018-11-04T16:06:36.819Z,49.00
2018-11-04T16:09:07.418Z,48.90
2018-11-04T16:11:35.863Z,48.80
2018-11-04T16:14:04.264Z,48.70
2018-11-04T16:16:32.764Z,48.70
2018-11-04T16:19:01.420Z,48.80
2018-11-04T16:21:29.843Z,48.60
2018-11-04T16:23:58.231Z,49.30
2018-11-04T16:26:26.672Z,48.80
2018-11-04T16:28:55.718Z,48.80
2018-11-04T16:31:24.734Z,48.70
2018-11-04T16:33:53.187Z,48.90
2018-11-04T16:36:21.593Z,48.70
2018-11-04T16:38:50.066Z,49.00
2018-11-04T16:41:18.513Z,48.50
2018-11-04T16:43:47.066Z,48.90
2018-11-04T16:46:16.051Z,48.90
2018-11-04T16:48:44.467Z,49.00
2018-11-04T16:51:12.851Z,49.00
2018-11-04T16:53:41.370Z,48.70
2018-11-04T16:56:09.873Z,49.30
2018-11-04T16:58:38.190Z,49.80
2018-11-04T17:01:06.607Z,50.40
2018-11-04T17:03:35.024Z,49.20
2018-11-04T17:06:03.415Z,49.20
2018-11-04T17:08:31.844Z,49.60
2018-11-04T17:11:00.332Z,49.70
2018-11-04T17:13:28.774Z,50.00
2018-11-04T17:15:57.590Z,50.00
2018-11-04T17:18:26.506Z,50.10
2018-11-04T17:20:55.112Z,50.10
2018-11-04T17:23:24.023Z,50.10
2018-11-04T17:25:52.848Z,50.20
2018-11-04T17:28:21.564Z,50.10
2018-11-04T17:30:51.272Z,50.50
2018-11-04T17:33:19.986Z,50.60
2018-11-04T17:35:48.733Z,50.70
2018-11-04T17:38:17.766Z,50.90
2018-11-04T17:40:46.246Z,50.90
2018-11-04T17:43:14.719Z,51.50
2018-11-04T17:45:43.125Z,51.70
2018-11-04T17:48:11.855Z,52.00
2018-11-04T17:50:40.300Z,52.10
2018-11-04T17:53:08.691Z,52.30
2018-11-04T17:55:37.224Z,52.40
2018-11-04T17:58:05.641Z,52.80
2018-11-04T18:00:34.056Z,52.80
2018-11-04T18:03:02.625Z,53.00
2018-11-04T18:05:31.038Z,53.00
2018-11-04T18:07:59.434Z,53.00
2018-11-04T18:10:27.903Z,53.10
2018-11-04T18:12:56.409Z,52.90
2018-11-04T18:15:26.612Z,52.60
2018-11-04T18:17:56.111Z,52.70
2018-11-04T18:20:24.828Z,52.90
2018-11-04T18:22:53.284Z,52.80
2018-11-04T18:25:21.724Z,52.50
2018-11-04T18:27:50.186Z,52.30
2018-11-04T18:30:18.597Z,51.80
2018-11-04T18:32:47.253Z,51.60
2018-11-04T18:35:15.824Z,51.70
2018-11-04T18:37:44.235Z,51.50
2018-11-04T18:40:14.325Z,51.60
2018-11-04T18:42:43.435Z,51.90
2018-11-04T18:45:13.149Z,51.70
2018-11-04T18:47:41.579Z,51.40
2018-11-04T18:50:12.180Z,51.20
2018-11-04T18:52:40.912Z,51.30
2018-11-04T18:55:10.542Z,51.50
2018-11-04T18:57:39.226Z,51.40
2018-11-04T19:00:09.687Z,51.20
2018-11-04T19:02:38.095Z,51.30
2018-11-04T19:05:07.085Z,51.40
2018-11-04T19:07:35.869Z,51.30
2018-11-04T19:10:04.511Z,51.10
2018-11-04T19:12:32.947Z,51.10
2018-11-04T19:15:01.435Z,51.10
2018-11-04T19:17:29.904Z,51.30
2018-11-04T19:19:58.343Z,51.00
2018-11-04T19:22:27.021Z,51.50
2018-11-04T19:24:55.462Z,51.10
2018-11-04T19:27:23.971Z,51.00
2018-11-04T19:29:52.439Z,50.80
2018-11-04T19:32:20.916Z,51.10
2018-11-04T19:34:49.347Z,50.80
2018-11-04T19:37:17.795Z,50.90
2018-11-04T19:39:46.208Z,50.90
2018-11-04T19:42:15.531Z,50.70
2018-11-04T19:44:43.930Z,50.90
2018-11-04T19:47:12.360Z,50.90
2018-11-04T19:49:40.785Z,50.80
2018-11-04T19:52:09.218Z,50.90
2018-11-04T19:54:37.653Z,51.00
2018-11-04T19:57:06.091Z,50.70
2018-11-04T19:59:34.581Z,50.70
2018-11-04T20:02:03.752Z,50.60
2018-11-04T20:04:32.352Z,50.70
2018-11-04T20:07:01.022Z,50.70
2018-11-04T20:09:30.375Z,50.50
2018-11-04T20:11:59.035Z,50.40
2018-11-04T20:14:27.493Z,51.00
2018-11-04T20:16:57.762Z,50.00
2018-11-04T20:19:31.757Z,50.30
2018-11-04T20:22:00.043Z,50.40
2018-11-04T20:24:37.402Z,50.30
2018-11-04T20:27:05.937Z,50.00
2018-11-04T20:29:34.454Z,49.90
2018-11-04T20:32:08.111Z,50.00
2018-11-04T20:34:36.530Z,49.80
2018-11-04T20:37:05.355Z,49.50
2018-11-04T20:39:39.232Z,50.00
2018-11-04T20:42:07.664Z,49.60
2018-11-04T20:44:42.157Z,49.80
2018-11-04T20:47:10.564Z,49.90
2018-11-04T20:49:44.401Z,50.00
2018-11-04T20:52:12.868Z,50.00
2018-11-04T20:54:41.360Z,50.00
2018-11-04T20:57:44.505Z,50.10
2018-11-04T21:00:14.008Z,50.10
2018-11-04T21:02:43.154Z,50.30
2018-11-04T21:05:11.532Z,50.10
2018-11-04T21:07:40.112Z,50.10
2018-11-04T21:10:09.997Z,50.00
2018-11-04T21:12:39.139Z,50.00
2018-11-04T21:15:08.007Z,50.00
2018-11-04T21:17:36.748Z,50.10
2018-11-04T21:20:05.697Z,50.10
2018-11-04T21:22:34.412Z,50.30
2018-11-04T21:25:03.314Z,50.20
2018-11-04T21:27:31.795Z,50.20
2018-11-04T21:30:00.620Z,50.20
2018-11-04T21:32:29.032Z,50.40
2018-11-04T21:34:57.711Z,50.40
2018-11-04T21:37:26.662Z,50.20
2018-11-04T21:39:55.348Z,50.00
2018-11-04T21:42:24.560Z,50.00
2018-11-04T21:44:53.120Z,50.00
2018-11-04T21:47:21.618Z,49.90
2018-11-04T21:49:50.309Z,49.80
2018-11-04T21:52:18.952Z,50.00
2018-11-04T21:54:47.566Z,50.00
2018-11-04T21:57:16.267Z,50.00
2018-11-04T21:59:44.659Z,50.00
2018-11-04T22:02:13.129Z,50.10
2018-11-04T22:04:41.636Z,50.00
2018-11-04T22:07:10.324Z,50.00
2018-11-04T22:09:38.746Z,50.10
2018-11-04T22:12:07.246Z,50.20
2018-11-04T22:14:35.760Z,50.10
2018-11-04T22:17:04.297Z,50.10
2018-11-04T22:19:32.803Z,50.00
2018-11-04T22:22:01.214Z,49.80
2018-11-04T22:24:29.613Z,49.60
2018-11-04T22:26:58.042Z,50.00
2018-11-04T22:29:26.509Z,50.00
2018-11-04T22:31:54.888Z,49.30
2018-11-04T22:34:23.297Z,49.30
2018-11-04T22:36:51.861Z,49.40
2018-11-04T22:39:20.345Z,49.90
2018-11-04T22:41:48.723Z,49.30
2018-11-04T22:44:17.131Z,49.30
2018-11-04T22:46:45.525Z,49.30
2018-11-04T22:49:14.250Z,49.40
2018-11-04T22:51:42.647Z,49.30
2018-11-04T22:54:11.415Z,49.30
2018-11-04T22:56:39.938Z,49.30
2018-11-04T22:59:08.399Z,49.30
2018-11-04T23:01:36.977Z,50.40
2018-11-04T23:04:05.402Z,49.90
2018-11-04T23:06:33.727Z,49.90
2018-11-04T23:09:02.115Z,49.90
2018-11-04T23:11:30.511Z,49.90
2018-11-04T23:13:58.908Z,50.10
2018-11-04T23:16:27.314Z,50.00
2018-11-04T23:18:55.711Z,50.10
2018-11-04T23:21:24.125Z,50.10
2018-11-04T23:23:52.548Z,50.10
2018-11-04T23:26:20.946Z,50.10
2018-11-04T23:28:49.352Z,50.30
2018-11-04T23:31:17.806Z,50.20
2018-11-04T23:33:46.333Z,50.20
2018-11-04T23:36:14.741Z,50.30
2018-11-04T23:38:43.140Z,50.20
2018-11-04T23:41:11.588Z,50.30
2018-11-04T23:43:39.982Z,50.30
2018-11-04T23:46:08.444Z,50.30
2018-11-04T23:48:36.864Z,50.30
2018-11-04T23:51:05.787Z,50.70
2018-11-04T23:53:35.003Z,50.40
2018-11-04T23:56:03.490Z,50.40
2018-11-04T23:58:31.889Z,50.40
